Time;durP1;ratioP1;P1;durP2;ratioP2;P2;SDS_P1;SDS_P2;PMS_P1;PMS_P2;Temp;Humidity;BMP_temperature;BMP_pressure;BME280_temperature;BME280_humidity;BME280_pressure;Samples;Min_cycle;Max_cycle;Signal;HPM_P1;HPM_P2
2021/06/07 00:01:27;;;;;;;11.43;7.63;;;17.20;99.90;;;;;;5119348;28;20854;-75
2021/06/07 00:03:53;;;;;;;10.68;7.30;;;17.10;99.90;;;;;;5119627;28;20416;-75
2021/06/07 00:06:20;;;;;;;10.55;6.25;;;17.20;99.90;;;;;;5118508;28;20823;-74
2021/06/07 00:08:48;;;;;;;11.35;8.05;;;17.10;99.90;;;;;;5118820;28;20858;-75
2021/06/07 00:11:15;;;;;;;10.57;7.55;;;17.10;99.90;;;;;;5119491;28;20432;-75
2021/06/07 00:13:43;;;;;;;10.38;7.40;;;17.10;99.90;;;;;;5119055;28;20456;-75
2021/06/07 00:16:11;;;;;;;9.77;7.78;;;17.00;99.90;;;;;;5119248;28;20568;-75
2021/06/07 00:18:38;;;;;;;9.98;7.35;;;17.10;99.90;;;;;;5119130;28;20423;-75
2021/06/07 00:21:09;;;;;;;12.43;7.95;;;17.10;99.90;;;;;;5118458;28;20482;-75
2021/06/07 00:23:36;;;;;;;11.70;8.02;;;17.10;99.90;;;;;;5118879;28;20522;-74
2021/06/07 00:26:05;;;;;;;13.93;9.13;;;17.10;99.90;;;;;;5119376;28;20823;-75
2021/06/07 00:28:32;;;;;;;12.52;7.72;;;17.00;99.90;;;;;;5118949;28;20726;-75
2021/06/07 00:30:59;;;;;;;10.93;8.45;;;17.00;99.90;;;;;;5118882;28;20420;-75
2021/06/07 00:33:25;;;;;;;11.77;7.70;;;17.00;99.90;;;;;;5117736;28;20877;-75
2021/06/07 00:35:52;;;;;;;14.45;7.88;;;17.00;99.90;;;;;;5116060;28;20837;-75
2021/06/07 00:38:18;;;;;;;10.93;7.32;;;17.00;99.90;;;;;;5116033;28;20834;-75
2021/06/07 00:40:45;;;;;;;12.05;8.00;;;17.10;99.90;;;;;;5115887;28;20830;-75
2021/06/07 00:43:14;;;;;;;10.90;7.82;;;17.00;99.90;;;;;;5116089;28;20499;-75
2021/06/07 00:45:41;;;;;;;10.35;7.68;;;17.00;99.90;;;;;;5115721;28;20485;-75
2021/06/07 00:48:09;;;;;;;7.95;6.60;;;17.00;99.90;;;;;;5117094;28;20739;-75
2021/06/07 00:50:41;;;;;;;9.50;6.63;;;17.00;99.90;;;;;;5118624;28;20416;-75
2021/06/07 00:53:12;;;;;;;13.48;8.10;;;17.10;99.90;;;;;;5118889;28;20715;-75
2021/06/07 00:55:42;;;;;;;9.60;6.60;;;17.00;99.90;;;;;;5118934;28;20816;-75
2021/06/07 00:58:10;;;;;;;9.48;7.38;;;17.00;99.90;;;;;;5117767;28;20439;-75
2021/06/07 01:00:39;;;;;;;11.73;8.18;;;17.00;99.90;;;;;;5118851;28;20408;-74
2021/06/07 01:03:08;;;;;;;12.13;7.72;;;17.00;99.90;;;;;;5117075;28;20699;-75
2021/06/07 01:05:35;;;;;;;10.80;7.20;;;17.00;99.90;;;;;;5116989;28;20428;-75
2021/06/07 01:08:03;;;;;;;11.07;7.40;;;17.00;99.90;;;;;;5115690;28;20508;-74
2021/06/07 01:10:29;;;;;;;10.57;7.60;;;17.00;99.90;;;;;;5115264;28;20448;-75
2021/06/07 01:12:56;;;;;;;10.32;7.20;;;16.90;99.90;;;;;;5115405;28;20723;-74
2021/06/07 01:15:23;;;;;;;10.40;7.20;;;16.90;99.90;;;;;;5115118;28;20401;-75
2021/06/07 01:17:51;;;;;;;13.55;8.02;;;16.80;99.90;;;;;;5114590;28;20789;-74
2021/06/07 01:20:19;;;;;;;11.20;7.43;;;16.70;99.90;;;;;;5118088;28;20420;-74
2021/06/07 01:22:48;;;;;;;13.48;7.00;;;16.80;99.90;;;;;;5117730;28;20539;-75
2021/06/07 01:25:20;;;;;;;11.63;8.27;;;16.80;99.90;;;;;;5117812;28;20420;-74
2021/06/07 01:27:47;;;;;;;12.10;7.25;;;16.90;99.90;;;;;;5116850;28;20427;-75
2021/06/07 01:30:17;;;;;;;10.50;6.90;;;17.00;99.90;;;;;;5117296;28;20912;-75
2021/06/07 01:32:44;;;;;;;13.63;8.43;;;17.00;99.90;;;;;;5117574;28;20866;-75
2021/06/07 01:35:12;;;;;;;16.10;8.00;;;17.00;99.90;;;;;;5117381;28;20416;-75
2021/06/07 01:37:40;;;;;;;11.00;7.60;;;17.00;99.90;;;;;;5117380;28;20477;-74
2021/06/07 01:40:11;;;;;;;14.13;7.87;;;16.90;99.90;;;;;;5118171;28;20432;-75
2021/06/07 01:42:38;;;;;;;15.50;8.30;;;16.90;99.90;;;;;;5117017;28;20420;-74
2021/06/07 01:45:07;;;;;;;13.15;8.23;;;16.90;99.90;;;;;;5117427;28;20423;-75
2021/06/07 01:47:34;;;;;;;11.55;7.60;;;16.80;99.90;;;;;;5117020;28;20428;-75
2021/06/07 01:50:00;;;;;;;12.18;8.38;;;16.70;99.90;;;;;;5117888;28;20961;-75
2021/06/07 01:52:27;;;;;;;12.40;8.20;;;16.70;99.90;;;;;;5116953;28;20477;-74
2021/06/07 01:54:54;;;;;;;12.65;8.20;;;16.80;99.90;;;;;;5117180;28;20408;-75
2021/06/07 01:57:21;;;;;;;12.27;8.32;;;16.80;99.90;;;;;;5118165;28;20412;-75
2021/06/07 01:59:48;;;;;;;15.07;8.00;;;16.80;99.90;;;;;;5116875;28;20512;-75
2021/06/07 02:02:14;;;;;;;12.23;7.57;;;16.80;99.90;;;;;;5118218;28;20512;-74
2021/06/07 02:04:41;;;;;;;9.73;6.93;;;16.80;99.90;;;;;;5117012;28;20480;-75
2021/06/07 02:07:07;;;;;;;11.90;7.80;;;16.90;99.90;;;;;;5116946;28;20858;-76
2021/06/07 02:09:38;;;;;;;12.50;8.05;;;16.80;99.90;;;;;;5116875;28;20827;-75
2021/06/07 02:12:06;;;;;;;13.35;8.23;;;16.80;99.90;;;;;;5116695;28;20472;-75
2021/06/07 02:14:34;;;;;;;13.10;8.68;;;16.80;99.90;;;;;;5117760;28;20823;-75
2021/06/07 02:17:00;;;;;;;12.98;7.90;;;16.80;99.90;;;;;;5116936;28;20416;-74
2021/06/07 02:19:27;;;;;;;12.35;8.50;;;16.70;99.90;;;;;;5116534;28;20715;-75
2021/06/07 02:21:53;;;;;;;10.70;7.03;;;16.70;99.90;;;;;;5117754;28;20435;-75
2021/06/07 02:24:19;;;;;;;11.80;7.05;;;16.70;99.90;;;;;;5116964;28;20467;-75
2021/06/07 02:26:46;;;;;;;13.15;8.48;;;16.70;99.90;;;;;;5116255;28;20409;-74
2021/06/07 02:29:14;;;;;;;12.40;7.57;;;16.70;99.90;;;;;;5117596;28;20439;-74
2021/06/07 02:31:43;;;;;;;11.25;7.43;;;16.80;99.90;;;;;;5117099;28;20453;-75
2021/06/07 02:34:12;;;;;;;11.15;7.38;;;16.80;99.90;;;;;;5117041;28;20416;-75
2021/06/07 02:36:42;;;;;;;13.27;8.30;;;16.80;99.90;;;;;;5116158;28;20506;-75
2021/06/07 02:39:11;;;;;;;11.25;8.05;;;16.90;99.90;;;;;;5115934;28;20701;-75
2021/06/07 02:41:39;;;;;;;12.68;8.15;;;16.80;99.90;;;;;;5115843;28;20849;-75
2021/06/07 02:44:07;;;;;;;15.15;7.95;;;16.80;99.90;;;;;;5115909;28;20420;-75
2021/06/07 02:46:33;;;;;;;13.35;8.82;;;16.80;99.90;;;;;;5116830;28;20416;-75
2021/06/07 02:49:01;;;;;;;14.80;8.25;;;16.90;99.90;;;;;;5116133;28;20847;-75
2021/06/07 02:51:28;;;;;;;13.80;8.03;;;16.90;99.90;;;;;;5116580;28;20744;-75
2021/06/07 02:53:54;;;;;;;11.68;8.35;;;16.90;99.90;;;;;;5115894;28;20467;-74
2021/06/07 02:56:21;;;;;;;12.48;8.10;;;16.90;99.90;;;;;;5116886;28;20435;-75
2021/06/07 02:58:47;;;;;;;13.93;8.20;;;16.90;99.90;;;;;;5116445;28;20457;-75
2021/06/07 03:01:14;;;;;;;14.77;9.52;;;16.80;99.90;;;;;;5115735;28;20416;-75
2021/06/07 03:03:40;;;;;;;13.88;9.02;;;16.80;99.90;;;;;;5115291;28;20515;-75
2021/06/07 03:06:08;;;;;;;15.93;9.45;;;16.70;99.90;;;;;;5115296;28;20547;-75
2021/06/07 03:08:36;;;;;;;15.60;9.07;;;16.70;99.90;;;;;;5114990;28;20467;-75
2021/06/07 03:11:05;;;;;;;15.57;9.65;;;16.70;99.90;;;;;;5115702;28;20854;-75
2021/06/07 03:13:32;;;;;;;16.15;8.80;;;16.60;99.90;;;;;;5115820;28;20428;-75
2021/06/07 03:15:59;;;;;;;12.90;8.18;;;16.60;99.90;;;;;;5115291;28;20420;-75
2021/06/07 03:18:26;;;;;;;15.27;9.77;;;16.70;99.90;;;;;;5116618;28;21011;-75
2021/06/07 03:20:54;;;;;;;13.65;8.38;;;16.70;99.90;;;;;;5115549;28;20919;-75
2021/06/07 03:23:24;;;;;;;13.18;9.10;;;16.80;99.90;;;;;;5114552;28;20424;-75
2021/06/07 03:25:51;;;;;;;18.20;10.73;;;16.80;99.90;;;;;;5115969;28;20416;-75
2021/06/07 03:28:19;;;;;;;18.05;10.40;;;16.80;99.90;;;;;;5114907;28;20416;-75
2021/06/07 03:30:46;;;;;;;15.57;10.18;;;16.60;99.90;;;;;;5115428;28;20884;-75
2021/06/07 03:33:13;;;;;;;17.50;9.20;;;16.60;99.90;;;;;;5115345;28;20451;-75
2021/06/07 03:35:42;;;;;;;17.20;9.85;;;16.50;99.90;;;;;;5114775;28;20420;-75
2021/06/07 03:38:09;;;;;;;17.70;10.63;;;16.50;99.90;;;;;;5115590;28;20435;-75
2021/06/07 03:40:39;;;;;;;15.57;9.10;;;16.50;99.90;;;;;;5114483;28;20412;-75
2021/06/07 03:43:06;;;;;;;16.40;10.27;;;16.50;99.90;;;;;;5115235;28;20505;-75
2021/06/07 03:45:34;;;;;;;13.30;8.90;;;16.60;99.90;;;;;;5116040;28;20424;-75
2021/06/07 03:48:00;;;;;;;14.65;8.77;;;16.60;99.90;;;;;;5115863;28;20424;-75
2021/06/07 03:50:28;;;;;;;18.60;11.23;;;16.70;99.90;;;;;;5114729;28;20451;-75
2021/06/07 03:52:55;;;;;;;14.80;9.60;;;16.70;99.90;;;;;;5115023;28;20460;-75
2021/06/07 03:55:24;;;;;;;15.10;9.45;;;16.70;99.90;;;;;;5115784;28;20451;-75
2021/06/07 03:57:53;;;;;;;16.70;9.88;;;16.70;99.90;;;;;;5115554;28;20711;-74
2021/06/07 04:00:25;;;;;;;15.88;9.50;;;16.80;99.90;;;;;;5115416;28;20420;-75
2021/06/07 04:02:51;;;;;;;15.60;9.38;;;16.70;99.90;;;;;;5114643;28;20424;-75
2021/06/07 04:05:18;;;;;;;15.20;8.82;;;16.70;99.90;;;;;;5115386;28;20452;-74
2021/06/07 04:07:45;;;;;;;14.95;10.43;;;16.70;99.90;;;;;;5115921;28;20421;-75
2021/06/07 04:10:14;;;;;;;16.92;10.30;;;16.60;99.90;;;;;;5114355;28;20436;-75
2021/06/07 04:12:42;;;;;;;16.42;10.30;;;16.60;99.90;;;;;;5113807;28;20499;-75
2021/06/07 04:15:11;;;;;;;17.30;10.40;;;16.50;99.90;;;;;;5114177;28;20843;-75
2021/06/07 04:17:38;;;;;;;16.30;8.70;;;16.40;99.90;;;;;;5112543;28;20513;-75
2021/06/07 04:20:05;;;;;;;15.50;10.32;;;16.30;99.90;;;;;;5112656;28;20966;-75
2021/06/07 04:22:32;;;;;;;15.30;9.32;;;16.40;99.90;;;;;;5112454;28;20531;-75
2021/06/07 04:24:59;;;;;;;16.23;10.02;;;16.50;99.90;;;;;;5127626;27;20558;-75
2021/06/07 04:27:25;;;;;;;16.58;9.20;;;16.60;99.90;;;;;;5135314;27;20471;-75
2021/06/07 04:29:57;;;;;;;15.32;8.82;;;16.50;99.90;;;;;;5148070;27;20445;-74
2021/06/07 04:32:25;;;;;;;15.40;9.60;;;16.50;99.90;;;;;;5135780;28;20486;-74
2021/06/07 04:34:52;;;;;;;15.00;9.27;;;16.50;99.90;;;;;;5136439;28;20411;-74
2021/06/07 04:37:19;;;;;;;11.67;8.00;;;16.50;99.90;;;;;;5135919;27;20470;-74
2021/06/07 04:39:45;;;;;;;13.40;9.10;;;16.50;99.90;;;;;;5144680;27;20420;-74
2021/06/07 04:42:12;;;;;;;11.85;7.30;;;16.50;99.90;;;;;;5146549;27;20509;-74
2021/06/07 04:44:38;;;;;;;13.20;8.82;;;16.50;99.90;;;;;;5159447;27;20409;-74
2021/06/07 04:47:05;;;;;;;17.27;9.15;;;16.50;99.90;;;;;;5155333;27;20441;-73
2021/06/07 04:49:33;;;;;;;13.90;8.97;;;16.50;99.90;;;;;;5154194;27;20454;-74
2021/06/07 04:52:00;;;;;;;18.42;9.50;;;16.40;99.90;;;;;;5142642;27;20430;-73
2021/06/07 04:54:26;;;;;;;16.47;8.60;;;16.30;99.90;;;;;;5139863;27;20413;-74
2021/06/07 04:56:53;;;;;;;15.52;9.07;;;16.30;99.90;;;;;;5158186;27;20565;-73
2021/06/07 04:59:19;;;;;;;13.70;8.23;;;16.40;99.90;;;;;;5145471;27;20415;-73
2021/06/07 05:01:45;;;;;;;14.32;8.77;;;16.50;99.90;;;;;;5136477;27;20489;-74
2021/06/07 05:04:12;;;;;;;14.82;8.50;;;16.50;99.90;;;;;;5137574;27;20464;-73
2021/06/07 05:06:40;;;;;;;11.95;7.75;;;16.60;99.90;;;;;;5136844;27;20505;-73
2021/06/07 05:09:06;;;;;;;11.90;8.23;;;16.70;99.90;;;;;;5134478;27;20429;-72
2021/06/07 05:11:33;;;;;;;12.13;6.82;;;16.80;99.90;;;;;;5135112;27;20419;-72
2021/06/07 05:14:00;;;;;;;11.98;6.40;;;16.80;99.90;;;;;;5139299;27;20430;-72
2021/06/07 05:16:26;;;;;;;10.82;7.10;;;16.80;99.90;;;;;;5136513;27;20946;-73
2021/06/07 05:18:53;;;;;;;12.90;8.68;;;16.90;99.90;;;;;;5136779;27;20869;-73
2021/06/07 05:21:19;;;;;;;12.30;7.60;;;16.90;99.90;;;;;;5136825;27;20410;-73
2021/06/07 05:23:47;;;;;;;11.07;7.07;;;16.80;99.90;;;;;;5137116;27;20949;-73
2021/06/07 05:26:14;;;;;;;11.40;7.10;;;16.80;99.90;;;;;;5137264;27;20849;-73
2021/06/07 05:28:40;;;;;;;11.20;8.47;;;16.90;99.90;;;;;;5140545;27;20741;-73
2021/06/07 05:31:07;;;;;;;12.75;9.13;;;16.90;99.90;;;;;;5139350;27;20423;-73
2021/06/07 05:33:33;;;;;;;13.67;7.80;;;17.00;99.90;;;;;;5137940;27;20435;-73
2021/06/07 05:36:00;;;;;;;11.77;7.72;;;17.00;99.90;;;;;;5137155;27;20468;-73
2021/06/07 05:38:27;;;;;;;14.30;7.70;;;17.00;99.90;;;;;;5139897;27;20431;-73
2021/06/07 05:40:56;;;;;;;15.13;8.68;;;16.80;99.90;;;;;;5136579;27;20744;-74
2021/06/07 05:43:23;;;;;;;13.80;7.63;;;16.70;99.90;;;;;;5137997;27;20419;-72
2021/06/07 05:45:50;;;;;;;14.93;7.07;;;16.70;99.90;;;;;;5136932;27;20419;-72
2021/06/07 05:48:17;;;;;;;12.07;7.60;;;16.80;99.90;;;;;;5135709;27;20725;-73
2021/06/07 05:50:44;;;;;;;13.30;8.18;;;16.90;99.90;;;;;;5135394;27;20821;-73
2021/06/07 05:53:12;;;;;;;11.30;7.30;;;16.80;99.90;;;;;;5134172;27;20445;-74
2021/06/07 05:55:41;;;;;;;13.05;7.88;;;16.70;99.90;;;;;;5134649;27;20422;-75
2021/06/07 05:58:13;;;;;;;11.13;7.20;;;16.60;99.90;;;;;;5136224;27;20891;-72
2021/06/07 06:00:43;;;;;;;11.55;6.97;;;16.60;99.90;;;;;;5135413;27;20792;-72
2021/06/07 06:03:10;;;;;;;10.05;6.25;;;16.70;99.90;;;;;;5135204;27;20902;-74
2021/06/07 06:05:37;;;;;;;11.80;6.32;;;16.80;99.90;;;;;;5135858;27;20418;-74
2021/06/07 06:08:06;;;;;;;11.57;7.00;;;16.80;99.90;;;;;;5137429;27;20444;-73
2021/06/07 06:10:33;;;;;;;10.63;6.65;;;16.80;99.90;;;;;;5137914;27;20426;-74
2021/06/07 06:13:00;;;;;;;8.73;5.63;;;16.80;99.90;;;;;;5136636;27;20422;-74
2021/06/07 06:15:28;;;;;;;9.80;6.22;;;16.90;99.90;;;;;;5134431;27;20450;-74
2021/06/07 06:17:55;;;;;;;11.98;7.30;;;16.90;99.90;;;;;;5134904;27;20917;-74
2021/06/07 06:20:24;;;;;;;9.10;5.38;;;16.80;99.90;;;;;;5133624;27;20430;-77
2021/06/07 06:22:50;;;;;;;10.75;6.00;;;16.90;99.90;;;;;;5134087;27;20837;-74
2021/06/07 06:25:19;;;;;;;9.98;5.88;;;16.90;99.90;;;;;;5134962;27;20426;-75
2021/06/07 06:27:46;;;;;;;8.52;5.50;;;17.00;99.90;;;;;;5133889;27;20861;-76
2021/06/07 06:30:17;;;;;;;10.95;6.03;;;17.00;99.90;;;;;;5133282;27;20403;-75
2021/06/07 06:32:46;;;;;;;8.68;5.53;;;17.00;99.90;;;;;;5136180;27;20467;-75
2021/06/07 06:35:13;;;;;;;9.98;5.75;;;17.00;99.90;;;;;;5133826;27;20422;-76
2021/06/07 06:37:43;;;;;;;11.97;5.60;;;17.00;99.90;;;;;;5135292;27;20865;-77
2021/06/07 06:40:12;;;;;;;12.80;5.90;;;16.80;99.90;;;;;;5131961;27;20533;-76
2021/06/07 06:42:39;;;;;;;9.73;5.50;;;16.80;99.90;;;;;;5141974;27;20416;-76
2021/06/07 06:45:07;;;;;;;11.48;6.38;;;16.80;99.90;;;;;;5146357;27;20462;-76
2021/06/07 06:47:34;;;;;;;10.88;6.18;;;16.90;99.90;;;;;;5141674;27;20472;-75
2021/06/07 06:50:03;;;;;;;10.65;5.40;;;17.00;99.90;;;;;;5144094;27;20741;-77
2021/06/07 06:52:30;;;;;;;9.20;5.07;;;17.00;99.90;;;;;;5136065;27;20801;-76
2021/06/07 06:54:57;;;;;;;11.48;6.40;;;17.10;99.90;;;;;;5154006;27;20425;-76
2021/06/07 06:57:23;;;;;;;11.13;6.03;;;17.00;99.90;;;;;;5153308;27;20458;-77
2021/06/07 06:59:50;;;;;;;9.40;5.70;;;16.90;99.90;;;;;;5153916;27;20876;-77
2021/06/07 07:02:16;;;;;;;9.63;5.35;;;17.00;99.90;;;;;;5152057;27;20417;-77
2021/06/07 07:04:43;;;;;;;10.27;5.75;;;17.10;99.90;;;;;;5136549;27;20438;-76
2021/06/07 07:07:11;;;;;;;9.00;4.60;;;17.10;99.90;;;;;;5132747;27;20422;-76
2021/06/07 07:09:38;;;;;;;8.38;4.75;;;17.10;99.90;;;;;;5132070;27;20458;-76
2021/06/07 07:12:06;;;;;;;8.20;4.45;;;17.10;99.90;;;;;;5143031;27;20414;-75
2021/06/07 07:14:32;;;;;;;8.77;4.90;;;17.10;99.90;;;;;;5141559;27;20455;-77
2021/06/07 07:16:59;;;;;;;9.45;5.13;;;17.10;99.90;;;;;;5147965;27;20465;-75
2021/06/07 07:19:25;;;;;;;8.17;5.03;;;17.20;99.90;;;;;;5154812;27;20425;-75
2021/06/07 07:21:51;;;;;;;8.95;5.47;;;17.20;99.90;;;;;;5139954;27;20430;-76
2021/06/07 07:24:19;;;;;;;7.85;4.40;;;17.20;99.90;;;;;;5138024;27;20423;-74
2021/06/07 07:26:46;;;;;;;6.70;4.15;;;17.20;99.90;;;;;;5133210;27;20480;-75
2021/06/07 07:29:12;;;;;;;8.20;5.40;;;17.30;99.90;;;;;;5134605;27;20476;-75
2021/06/07 07:31:39;;;;;;;6.20;4.07;;;17.30;99.90;;;;;;5129145;27;20887;-75
2021/06/07 07:34:06;;;;;;;6.53;4.63;;;17.30;99.90;;;;;;5116982;28;20446;-75
2021/06/07 07:36:32;;;;;;;8.40;5.07;;;17.40;99.90;;;;;;5135324;28;20483;-75
2021/06/07 07:38:58;;;;;;;11.68;8.50;;;17.30;99.90;;;;;;5132579;28;20836;-75
2021/06/07 07:41:27;;;;;;;8.52;5.60;;;17.30;99.90;;;;;;5122151;28;20447;-75
2021/06/07 07:43:54;;;;;;;8.70;4.38;;;17.20;99.90;;;;;;5115283;28;20532;-76
2021/06/07 07:46:20;;;;;;;6.50;4.22;;;17.10;99.90;;;;;;5116735;28;20511;-75
2021/06/07 07:48:47;;;;;;;6.60;3.73;;;17.10;99.90;;;;;;5126569;28;20426;-74
2021/06/07 07:51:13;;;;;;;6.68;3.45;;;17.00;99.90;;;;;;5124102;28;20430;-75
2021/06/07 07:53:40;;;;;;;6.45;3.60;;;16.90;99.90;;;;;;5133482;28;20453;-74
2021/06/07 07:56:07;;;;;;;6.25;3.03;;;17.00;99.90;;;;;;5118761;28;20467;-75
2021/06/07 07:58:35;;;;;;;6.43;3.45;;;17.10;99.90;;;;;;5113128;28;20435;-74
2021/06/07 08:01:02;;;;;;;5.30;2.80;;;17.00;99.90;;;;;;5113305;28;20519;-76
2021/06/07 08:03:29;;;;;;;6.43;3.07;;;17.10;99.90;;;;;;5115776;28;20922;-74
2021/06/07 08:05:55;;;;;;;6.47;2.72;;;17.20;99.90;;;;;;5113133;28;20420;-77
2021/06/07 08:08:22;;;;;;;4.95;3.00;;;17.30;99.90;;;;;;5112909;28;20459;-75
2021/06/07 08:10:49;;;;;;;4.22;2.10;;;17.20;99.90;;;;;;5116431;28;20424;-74
2021/06/07 08:13:16;;;;;;;3.30;1.98;;;17.30;99.90;;;;;;5116970;28;20440;-74
2021/06/07 08:15:43;;;;;;;3.63;1.80;;;17.30;99.90;;;;;;5117798;28;20506;-74
2021/06/07 08:18:10;;;;;;;3.83;2.20;;;17.40;99.90;;;;;;5118319;28;20455;-76
2021/06/07 08:20:36;;;;;;;3.70;1.50;;;17.60;99.90;;;;;;5116325;28;20522;-75
2021/06/07 08:23:03;;;;;;;2.13;1.43;;;17.60;99.90;;;;;;5115829;28;20728;-74
2021/06/07 08:25:29;;;;;;;2.30;1.20;;;17.60;99.90;;;;;;5117049;28;20472;-76
2021/06/07 08:27:56;;;;;;;2.07;1.20;;;17.70;99.90;;;;;;5118750;28;20466;-76
2021/06/07 08:30:23;;;;;;;2.40;1.60;;;17.70;99.90;;;;;;5113189;28;20891;-76
2021/06/07 08:32:51;;;;;;;1.90;1.05;;;17.80;99.90;;;;;;5129015;27;20426;-74
2021/06/07 08:35:18;;;;;;;2.67;1.40;;;17.90;99.90;;;;;;5140239;27;20421;-76
2021/06/07 08:37:45;;;;;;;2.50;1.50;;;17.80;99.90;;;;;;5141861;27;20942;-76
2021/06/07 08:40:15;;;;;;;2.10;1.10;;;17.90;99.90;;;;;;5138995;27;20414;-76
2021/06/07 08:42:42;;;;;;;2.28;1.20;;;17.90;99.90;;;;;;5136550;27;20426;-75
2021/06/07 08:45:11;;;;;;;1.95;1.30;;;18.00;99.90;;;;;;5138533;27;20418;-76
2021/06/07 08:47:41;;;;;;;2.85;1.20;;;18.10;99.90;;;;;;5136508;27;20410;-75
2021/06/07 08:50:10;;;;;;;1.80;1.10;;;18.20;99.90;;;;;;5136149;27;20479;-75
2021/06/07 08:52:37;;;;;;;2.65;1.30;;;18.10;99.90;;;;;;5135983;27;20474;-76
2021/06/07 08:55:05;;;;;;;2.72;1.40;;;18.10;99.90;;;;;;5116606;27;20468;-75
2021/06/07 08:57:39;;;;;;;2.00;1.30;;;18.20;99.90;;;;;;5118586;27;20428;-75
2021/06/07 09:00:07;;;;;;;2.70;1.25;;;18.20;99.90;;;;;;5137220;27;20434;-75
2021/06/07 09:02:35;;;;;;;2.42;1.50;;;18.20;99.90;;;;;;5138409;27;20431;-74
2021/06/07 09:05:04;;;;;;;2.50;1.40;;;18.20;99.90;;;;;;5135751;27;20421;-74
2021/06/07 09:07:32;;;;;;;3.75;2.22;;;18.40;99.90;;;;;;5135840;27;20729;-76
2021/06/07 09:10:08;;;;;;;3.83;1.60;;;18.50;99.90;;;;;;5137604;27;20403;-73
2021/06/07 09:12:34;;;;;;;4.20;2.30;;;18.50;99.90;;;;;;5137364;27;20818;-74
2021/06/07 09:15:01;;;;;;;3.60;2.10;;;18.60;99.90;;;;;;5137603;27;20497;-75
2021/06/07 09:17:27;;;;;;;4.88;2.42;;;18.40;99.90;;;;;;5136413;27;20431;-76
2021/06/07 09:20:12;;;;;;;3.70;2.70;;;18.30;99.90;;;;;;5135797;27;20421;-74
2021/06/07 09:22:39;;;;;;;3.92;2.38;;;18.30;99.90;;;;;;5135316;27;20872;-72
2021/06/07 09:25:10;;;;;;;3.95;2.47;;;18.10;99.90;;;;;;5135843;27;20419;-74
2021/06/07 09:27:38;;;;;;;3.77;2.60;;;18.20;99.90;;;;;;5136268;27;20423;-73
2021/06/07 09:30:24;;;;;;;5.37;3.17;;;18.30;99.90;;;;;;5135841;27;20442;-72
2021/06/07 09:32:50;;;;;;;4.60;2.70;;;18.30;99.90;;;;;;5135756;27;20431;-71
2021/06/07 09:35:18;;;;;;;7.00;3.47;;;18.40;99.90;;;;;;5134388;27;20426;-72
2021/06/07 09:38:04;;;;;;;4.35;2.80;;;18.50;99.90;;;;;;5136112;27;20920;-72
2021/06/07 09:40:31;;;;;;;6.50;2.70;;;18.70;99.90;;;;;;5130481;27;20883;-72
2021/06/07 09:42:58;;;;;;;4.32;2.70;;;18.60;99.90;;;;;;5135834;27;20534;-73
2021/06/07 09:45:42;;;;;;;4.57;3.20;;;18.60;99.90;;;;;;5135221;27;20696;-72
2021/06/07 09:48:14;;;;;;;5.47;3.45;;;18.30;99.90;;;;;;5135433;27;20415;-72
2021/06/07 09:50:54;;;;;;;6.68;3.42;;;18.30;99.90;;;;;;5136614;27;20450;-73
2021/06/07 09:53:43;;;;;;;5.70;2.63;;;18.30;99.90;;;;;;5135805;27;20437;-72
2021/06/07 09:56:10;;;;;;;4.95;3.03;;;18.20;99.90;;;;;;5132310;27;20725;-73
2021/06/07 09:58:37;;;;;;;6.97;4.03;;;18.10;99.90;;;;;;5135380;27;20454;-71
2021/06/07 10:01:12;;;;;;;6.10;2.65;;;18.20;99.90;;;;;;5136148;27;20514;-72
2021/06/07 10:03:42;;;;;;;4.17;2.30;;;18.40;99.90;;;;;;5135820;27;20437;-73
2021/06/07 10:06:34;;;;;;;4.82;3.00;;;18.50;99.90;;;;;;5136116;27;20428;-72
2021/06/07 10:09:04;;;;;;;5.70;3.00;;;18.60;99.90;;;;;;5135817;27;20434;-72
2021/06/07 10:11:33;;;;;;;3.77;2.00;;;18.80;99.90;;;;;;5134849;27;20903;-75
2021/06/07 10:14:08;;;;;;;5.13;2.78;;;18.90;99.90;;;;;;5134089;27;20916;-70
2021/06/07 10:16:35;;;;;;;5.82;3.17;;;18.90;99.90;;;;;;5135137;27;20463;-71
2021/06/07 10:19:05;;;;;;;6.40;2.70;;;18.90;99.90;;;;;;5136027;27;20465;-72
2021/06/07 10:21:31;;;;;;;5.10;3.17;;;18.80;99.90;;;;;;5136376;27;20848;-72
2021/06/07 10:23:59;;;;;;;4.35;2.70;;;18.80;99.90;;;;;;5135622;27;21015;-71
2021/06/07 10:26:27;;;;;;;5.90;3.40;;;18.90;99.90;;;;;;5135056;27;20420;-73
2021/06/07 10:28:56;;;;;;;5.68;3.35;;;19.00;99.90;;;;;;5135102;27;20422;-71
2021/06/07 10:31:24;;;;;;;3.97;2.50;;;19.00;99.90;;;;;;5134401;27;20423;-72
2021/06/07 10:34:00;;;;;;;4.13;3.33;;;18.90;99.90;;;;;;5155123;27;20464;-72
2021/06/07 10:36:43;;;;;;;5.40;2.42;;;18.90;99.90;;;;;;5155410;27;20417;-73
2021/06/07 10:39:27;;;;;;;3.92;2.03;;;19.00;99.90;;;;;;5154190;27;21526;-72
2021/06/07 10:42:25;;;;;;;3.85;2.75;;;19.20;99.90;;;;;;5154254;27;20421;-73
2021/06/07 10:45:01;;;;;;;4.10;2.80;;;19.10;99.90;;;;;;5154178;27;20503;-73
2021/06/07 10:47:41;;;;;;;3.45;2.60;;;19.30;99.90;;;;;;5157353;27;20451;-72
2021/06/07 10:50:10;;;;;;;4.47;2.60;;;19.20;99.90;;;;;;5151804;27;20437;-71
2021/06/07 10:52:50;;;;;;;5.47;2.40;;;19.30;99.90;;;;;;5136507;27;20426;-71
2021/06/07 10:55:23;;;;;;;3.13;2.70;;;19.20;99.90;;;;;;5134596;27;20521;-72
2021/06/07 10:57:53;;;;;;;4.28;3.33;;;19.30;99.90;;;;;;5134245;27;20442;-72
2021/06/07 11:00:29;;;;;;;4.30;2.90;;;19.10;99.90;;;;;;5134082;27;20516;-73
2021/06/07 11:02:58;;;;;;;4.65;3.42;;;19.00;99.90;;;;;;5134285;27;20437;-72
2021/06/07 11:05:27;;;;;;;3.57;2.53;;;18.90;99.90;;;;;;5135553;27;20433;-71
2021/06/07 11:08:06;;;;;;;3.50;2.40;;;18.80;99.90;;;;;;5135037;27;20441;-72
2021/06/07 11:10:34;;;;;;;3.80;2.60;;;18.80;99.90;;;;;;5135668;27;20422;-71
2021/06/07 11:13:04;;;;;;;4.85;3.17;;;18.90;99.90;;;;;;5134020;27;21081;-72
2021/06/07 11:15:33;;;;;;;4.60;3.10;;;18.90;99.90;;;;;;5136044;27;20857;-73
2021/06/07 11:18:26;;;;;;;4.30;2.63;;;18.80;99.90;;;;;;5134333;27;20724;-73
2021/06/07 11:20:55;;;;;;;3.60;2.95;;;18.70;99.90;;;;;;5134855;27;20508;-73
2021/06/07 11:23:33;;;;;;;4.70;3.20;;;18.80;99.90;;;;;;5135763;27;20425;-74
2021/06/07 11:26:01;;;;;;;4.13;3.15;;;18.80;99.90;;;;;;5134391;27;20513;-74
2021/06/07 11:28:45;;;;;;;3.42;2.92;;;18.70;99.90;;;;;;5132222;27;20422;-74
2021/06/07 11:31:53;;;;;;;4.50;2.90;;;18.80;99.90;;;;;;5132722;27;20515;-75
2021/06/07 11:34:36;;;;;;;4.90;2.88;;;18.80;99.90;;;;;;5131441;27;20503;-74
2021/06/07 11:37:03;;;;;;;5.68;2.83;;;19.00;99.90;;;;;;5121597;27;20447;-75
2021/06/07 11:39:47;;;;;;;3.80;2.65;;;19.20;99.90;;;;;;5132696;27;20426;-73
2021/06/07 11:42:15;;;;;;;4.60;3.47;;;19.20;99.90;;;;;;5120803;28;20479;-73
2021/06/07 11:44:56;;;;;;;5.13;3.00;;;19.10;99.90;;;;;;5133047;27;20917;-73
2021/06/07 11:47:25;;;;;;;3.50;2.85;;;19.30;99.90;;;;;;5136942;27;20423;-72
2021/06/07 11:50:13;;;;;;;3.92;2.95;;;19.30;99.90;;;;;;5131728;27;20438;-72
2021/06/07 11:52:48;;;;;;;4.07;2.75;;;19.30;99.90;;;;;;5134565;27;20516;-72
2021/06/07 11:55:27;;;;;;;3.70;2.50;;;19.50;99.90;;;;;;5130037;27;20517;-71
2021/06/07 11:58:09;;;;;;;3.10;2.25;;;19.60;99.90;;;;;;5137417;27;20519;-72
2021/06/07 12:00:40;;;;;;;3.40;2.40;;;19.70;99.90;;;;;;5153644;27;20436;-72
2021/06/07 12:03:08;;;;;;;2.42;2.22;;;19.70;99.90;;;;;;5143330;27;20424;-71
2021/06/07 12:05:35;;;;;;;3.20;2.13;;;19.80;99.90;;;;;;5151015;27;20432;-73
2021/06/07 12:08:07;;;;;;;4.00;2.60;;;19.70;99.90;;;;;;5149068;27;20499;-72
2021/06/07 12:10:34;;;;;;;2.95;2.15;;;19.40;99.90;;;;;;5149173;27;20441;-74
2021/06/07 12:16:23;;;;;;;2.83;2.30;;;19.50;99.90;;;;;;5142587;27;20470;-74
2021/06/07 12:18:53;;;;;;;4.03;3.10;;;19.70;99.90;;;;;;5136685;27;20515;-73
2021/06/07 12:21:22;;;;;;;4.47;2.50;;;19.60;99.90;;;;;;5143963;27;20430;-73
2021/06/07 12:23:54;;;;;;;3.50;2.00;;;19.70;99.90;;;;;;5147109;27;20438;-75
2021/06/07 12:29:31;;;;;;;2.80;2.10;;;19.80;99.90;;;;;;5137650;27;20519;-75
2021/06/07 12:32:13;;;;;;;3.90;2.50;;;20.00;99.90;;;;;;5138044;27;20768;-76
2021/06/07 12:35:01;;;;;;;3.85;2.28;;;20.10;99.90;;;;;;5137532;27;20501;-77
2021/06/07 12:37:30;;;;;;;3.35;2.60;;;20.20;99.90;;;;;;5137936;27;20426;-76
2021/06/07 12:40:25;;;;;;;4.70;3.00;;;20.30;99.90;;;;;;5136689;27;20630;-74
2021/06/07 12:42:59;;;;;;;4.55;2.83;;;20.40;99.90;;;;;;5135451;27;20749;-75
2021/06/07 12:45:28;;;;;;;5.30;3.90;;;20.40;99.90;;;;;;5136189;27;20538;-76
2021/06/07 12:48:09;;;;;;;6.17;3.93;;;20.30;99.90;;;;;;5137143;27;20428;-75
2021/06/07 12:50:35;;;;;;;5.13;2.53;;;20.30;99.90;;;;;;5137448;27;20522;-75
2021/06/07 12:53:02;;;;;;;4.30;2.90;;;20.30;99.90;;;;;;5137044;27;20899;-75
2021/06/07 12:55:32;;;;;;;4.35;3.33;;;20.40;99.90;;;;;;5137157;27;21113;-75
2021/06/07 12:58:06;;;;;;;4.93;3.30;;;20.50;99.90;;;;;;5135810;27;20434;-75